sensor_id;sensor_type;location;lat;lon;timestamp;pressure;altitude;pressure_sealevel;temperature;humidity
68594;BME280;55563;52.416;13.548;2024-01-30T00:00:13;102523.94;;;1.62;100.00
68594;BME280;55563;52.416;13.548;2024-01-30T00:02:14;102526.66;;;1.60;100.00
68594;BME280;55563;52.416;13.548;2024-01-30T00:04:14;102518.53;;;1.55;100.00
68594;BME280;55563;52.416;13.548;2024-01-30T00:06:18;102512.53;;;1.55;100.00
68594;BME280;55563;52.416;13.548;2024-01-30T00:08:21;102513.50;;;1.54;100.00
68594;BME280;55563;52.416;13.548;2024-01-30T00:10:21;102518.69;;;1.54;100.00
68594;BME280;55563;52.416;13.548;2024-01-30T00:12:22;102527.28;;;1.54;100.00
68594;BME280;55563;52.416;13.548;2024-01-30T00:14:23;102516.91;;;1.54;100.00
68594;BME280;55563;52.416;13.548;2024-01-30T00:16:25;102514.31;;;1.54;100.00
68594;BME280;55563;52.416;13.548;2024-01-30T00:18:25;102517.44;;;1.58;100.00
68594;BME280;55563;52.416;13.548;2024-01-30T00:20:26;102522.31;;;1.61;100.00
68594;BME280;55563;52.416;13.548;2024-01-30T00:22:27;102516.31;;;1.60;100.00
68594;BME280;55563;52.416;13.548;2024-01-30T00:24:30;102515.63;;;1.58;100.00
68594;BME280;55563;52.416;13.548;2024-01-30T00:26:31;102518.22;;;1.58;100.00
68594;BME280;55563;52.416;13.548;2024-01-30T00:28:31;102518.78;;;1.44;100.00
68594;BME280;55563;52.416;13.548;2024-01-30T00:30:32;102518.94;;;1.43;100.00
68594;BME280;55563;52.416;13.548;2024-01-30T00:32:32;102525.44;;;1.47;100.00
68594;BME280;55563;52.416;13.548;2024-01-30T00:34:33;102523.59;;;1.39;100.00
68594;BME280;55563;52.416;13.548;2024-01-30T00:36:33;102522.50;;;1.42;100.00
68594;BME280;55563;52.416;13.548;2024-01-30T00:38:34;102512.94;;;1.42;100.00
68594;BME280;55563;52.416;13.548;2024-01-30T00:40:35;102514.59;;;1.43;100.00
68594;BME280;55563;52.416;13.548;2024-01-30T00:42:35;102509.03;;;1.38;100.00
68594;BME280;55563;52.416;13.548;2024-01-30T00:44:36;102513.69;;;1.35;100.00
68594;BME280;55563;52.416;13.548;2024-01-30T00:46:39;102506.59;;;1.37;100.00
68594;BME280;55563;52.416;13.548;2024-01-30T00:48:39;102510.31;;;1.34;100.00
68594;BME280;55563;52.416;13.548;2024-01-30T00:50:40;102510.00;;;1.37;100.00
68594;BME280;55563;52.416;13.548;2024-01-30T00:52:40;102510.31;;;1.34;100.00
68594;BME280;55563;52.416;13.548;2024-01-30T00:54:42;102506.47;;;1.38;100.00
68594;BME280;55563;52.416;13.548;2024-01-30T00:56:43;102512.75;;;1.36;100.00
68594;BME280;55563;52.416;13.548;2024-01-30T00:58:43;102513.50;;;1.28;100.00
68594;BME280;55563;52.416;13.548;2024-01-30T01:00:44;102513.50;;;1.28;100.00
68594;BME280;55563;52.416;13.548;2024-01-30T01:02:45;102506.38;;;1.30;100.00
68594;BME280;55563;52.416;13.548;2024-01-30T01:04:45;102518.22;;;1.33;100.00
68594;BME280;55563;52.416;13.548;2024-01-30T01:06:46;102518.22;;;1.33;100.00
68594;BME280;55563;52.416;13.548;2024-01-30T01:08:46;102517.56;;;1.30;100.00
68594;BME280;55563;52.416;13.548;2024-01-30T01:10:47;102517.72;;;1.29;100.00
68594;BME280;55563;52.416;13.548;2024-01-30T01:12:48;102514.59;;;1.25;100.00
68594;BME280;55563;52.416;13.548;2024-01-30T01:14:48;102520.78;;;1.24;100.00
68594;BME280;55563;52.416;13.548;2024-01-30T01:16:49;102514.59;;;1.25;100.00
68594;BME280;55563;52.416;13.548;2024-01-30T01:18:49;102514.78;;;1.24;100.00
68594;BME280;55563;52.416;13.548;2024-01-30T01:20:50;102517.19;;;1.25;100.00
68594;BME280;55563;52.416;13.548;2024-01-30T01:22:51;102515.41;;;1.26;100.00
68594;BME280;55563;52.416;13.548;2024-01-30T01:24:52;102505.88;;;1.26;100.00
68594;BME280;55563;52.416;13.548;2024-01-30T01:26:53;102498.91;;;1.27;100.00
68594;BME280;55563;52.416;13.548;2024-01-30T01:28:54;102503.97;;;1.28;100.00
68594;BME280;55563;52.416;13.548;2024-01-30T01:30:54;102505.22;;;1.24;100.00
68594;BME280;55563;52.416;13.548;2024-01-30T01:32:59;102507.19;;;1.30;100.00
68594;BME280;55563;52.416;13.548;2024-01-30T01:35:02;102503.34;;;1.35;100.00
68594;BME280;55563;52.416;13.548;2024-01-30T01:37:05;102505.28;;;1.33;100.00
68594;BME280;55563;52.416;13.548;2024-01-30T01:39:07;102507.06;;;1.32;100.00
68594;BME280;55563;52.416;13.548;2024-01-30T01:41:08;102502.47;;;1.26;100.00
68594;BME280;55563;52.416;13.548;2024-01-30T01:43:09;102508.47;;;1.26;100.00
68594;BME280;55563;52.416;13.548;2024-01-30T01:45:10;102501.81;;;1.24;100.00
68594;BME280;55563;52.416;13.548;2024-01-30T01:47:10;102502.78;;;1.23;100.00
68594;BME280;55563;52.416;13.548;2024-01-30T01:49:11;102505.22;;;1.24;100.00
68594;BME280;55563;52.416;13.548;2024-01-30T01:51:12;102504.19;;;1.17;100.00
68594;BME280;55563;52.416;13.548;2024-01-30T01:53:13;102498.88;;;1.19;100.00
68594;BME280;55563;52.416;13.548;2024-01-30T01:55:16;102498.88;;;1.19;100.00
68594;BME280;55563;52.416;13.548;2024-01-30T01:57:18;102497.47;;;1.24;100.00
68594;BME280;55563;52.416;13.548;2024-01-30T01:59:20;102489.25;;;1.29;100.00
68594;BME280;55563;52.416;13.548;2024-01-30T02:01:21;102485.28;;;1.25;100.00
68594;BME280;55563;52.416;13.548;2024-01-30T02:03:23;102493.59;;;1.28;100.00
68594;BME280;55563;52.416;13.548;2024-01-30T02:05:24;102495.88;;;1.31;100.00
68594;BME280;55563;52.416;13.548;2024-01-30T02:07:25;102488.41;;;1.28;100.00
68594;BME280;55563;52.416;13.548;2024-01-30T02:09:26;102491.81;;;1.29;100.00
68594;BME280;55563;52.416;13.548;2024-01-30T02:11:27;102501.97;;;1.22;100.00
68594;BME280;55563;52.416;13.548;2024-01-30T02:13:28;102495.00;;;1.23;100.00
68594;BME280;55563;52.416;13.548;2024-01-30T02:15:29;102497.75;;;1.21;100.00
68594;BME280;55563;52.416;13.548;2024-01-30T02:17:30;102501.47;;;1.19;100.00
68594;BME280;55563;52.416;13.548;2024-01-30T02:19:31;102502.28;;;1.19;100.00
68594;BME280;55563;52.416;13.548;2024-01-30T02:21:31;102499.16;;;1.16;100.00
68594;BME280;55563;52.416;13.548;2024-01-30T02:23:32;102499.59;;;1.11;100.00
68594;BME280;55563;52.416;13.548;2024-01-30T02:25:38;102499.09;;;1.08;100.00
68594;BME280;55563;52.416;13.548;2024-01-30T02:27:39;102498.16;;;1.09;100.00
68594;BME280;55563;52.416;13.548;2024-01-30T02:29:39;102500.50;;;1.02;100.00
68594;BME280;55563;52.416;13.548;2024-01-30T02:31:40;102493.69;;;1.01;100.00
68594;BME280;55563;52.416;13.548;2024-01-30T02:33:41;102495.78;;;0.98;100.00
68594;BME280;55563;52.416;13.548;2024-01-30T02:35:42;102497.56;;;0.97;100.00
68594;BME280;55563;52.416;13.548;2024-01-30T02:37:42;102490.31;;;1.01;100.00
68594;BME280;55563;52.416;13.548;2024-01-30T02:39:43;102491.41;;;0.98;100.00
68594;BME280;55563;52.416;13.548;2024-01-30T02:41:44;102494.31;;;0.95;100.00
68594;BME280;55563;52.416;13.548;2024-01-30T02:43:44;102492.81;;;0.93;100.00
68594;BME280;55563;52.416;13.548;2024-01-30T02:45:47;102492.81;;;0.93;100.00
68594;BME280;55563;52.416;13.548;2024-01-30T02:47:48;102489.72;;;0.89;100.00
68594;BME280;55563;52.416;13.548;2024-01-30T02:49:49;102493.13;;;0.90;100.00
68594;BME280;55563;52.416;13.548;2024-01-30T02:51:50;102486.31;;;0.88;100.00
68594;BME280;55563;52.416;13.548;2024-01-30T02:53:51;102486.19;;;0.90;100.00
68594;BME280;55563;52.416;13.548;2024-01-30T02:55:51;102495.72;;;0.90;100.00
68594;BME280;55563;52.416;13.548;2024-01-30T02:57:52;102490.03;;;0.86;100.00
68594;BME280;55563;52.416;13.548;2024-01-30T02:59:52;102485.50;;;0.88;100.00
68594;BME280;55563;52.416;13.548;2024-01-30T03:01:53;102488.78;;;0.90;100.00
68594;BME280;55563;52.416;13.548;2024-01-30T03:03:53;102484.69;;;0.87;100.00
68594;BME280;55563;52.416;13.548;2024-01-30T06:55:02;102447.31;;;0.47;100.00
68594;BME280;55563;52.416;13.548;2024-01-30T06:57:04;102446.88;;;0.51;100.00
68594;BME280;55563;52.416;13.548;2024-01-30T06:59:05;102449.97;;;0.55;100.00
68594;BME280;55563;52.416;13.548;2024-01-30T07:01:06;102447.22;;;0.56;100.00
68594;BME280;55563;52.416;13.548;2024-01-30T07:03:06;102454.19;;;0.56;100.00
68594;BME280;55563;52.416;13.548;2024-01-30T07:05:07;102448.63;;;0.51;100.00
68594;BME280;55563;52.416;13.548;2024-01-30T07:07:08;102456.25;;;0.52;100.00
68594;BME280;55563;52.416;13.548;2024-01-30T07:09:13;102454.47;;;0.53;100.00
68594;BME280;55563;52.416;13.548;2024-01-30T07:11:21;102458.03;;;0.52;100.00
68594;BME280;55563;52.416;13.548;2024-01-30T07:13:22;102447.69;;;0.52;100.00
68594;BME280;55563;52.416;13.548;2024-01-30T07:15:23;102453.66;;;0.52;100.00
68594;BME280;55563;52.416;13.548;2024-01-30T07:17:24;102461.44;;;0.52;100.00
68594;BME280;55563;52.416;13.548;2024-01-30T07:19:24;102454.63;;;0.51;100.00
68594;BME280;55563;52.416;13.548;2024-01-30T07:21:25;102455.13;;;0.55;100.00
68594;BME280;55563;52.416;13.548;2024-01-30T07:23:28;102454.47;;;0.53;100.00
68594;BME280;55563;52.416;13.548;2024-01-30T07:25:30;102448.19;;;0.55;100.00
68594;BME280;55563;52.416;13.548;2024-01-30T07:27:31;102447.59;;;0.61;100.00
68594;BME280;55563;52.416;13.548;2024-01-30T07:29:31;102449.44;;;0.69;100.00
68594;BME280;55563;52.416;13.548;2024-01-30T07:31:32;102446.41;;;0.73;100.00
68594;BME280;55563;52.416;13.548;2024-01-30T07:33:32;102442.53;;;0.77;100.00
68594;BME280;55563;52.416;13.548;2024-01-30T07:35:33;102441.44;;;0.80;100.00
68594;BME280;55563;52.416;13.548;2024-01-30T07:37:33;102451.22;;;0.86;100.00
68594;BME280;55563;52.416;13.548;2024-01-30T07:39:34;102446.81;;;0.86;100.00
68594;BME280;55563;52.416;13.548;2024-01-30T07:41:35;102438.09;;;0.87;100.00
68594;BME280;55563;52.416;13.548;2024-01-30T07:43:35;102434.78;;;0.95;100.00
68594;BME280;55563;52.416;13.548;2024-01-30T07:45:36;102438.69;;;0.99;100.00
68594;BME280;55563;52.416;13.548;2024-01-30T07:47:38;102449.22;;;1.06;100.00
68594;BME280;55563;52.416;13.548;2024-01-30T07:49:38;102438.00;;;1.15;100.00
68594;BME280;55563;52.416;13.548;2024-01-30T07:51:39;102438.13;;;1.13;100.00
68594;BME280;55563;52.416;13.548;2024-01-30T07:53:41;102433.47;;;1.17;100.00
68594;BME280;55563;52.416;13.548;2024-01-30T07:55:42;102439.13;;;1.20;100.00
68594;BME280;55563;52.416;13.548;2024-01-30T07:57:47;102440.13;;;1.19;100.00
68594;BME280;55563;52.416;13.548;2024-01-30T07:59:47;102437.25;;;1.30;100.00
68594;BME280;55563;52.416;13.548;2024-01-30T08:01:48;102445.34;;;1.27;100.00
68594;BME280;55563;52.416;13.548;2024-01-30T08:03:49;102440.47;;;1.24;100.00
68594;BME280;55563;52.416;13.548;2024-01-30T08:05:49;102444.13;;;1.40;100.00
68594;BME280;55563;52.416;13.548;2024-01-30T08:07:50;102443.50;;;1.46;100.00
68594;BME280;55563;52.416;13.548;2024-01-30T08:09:51;102445.50;;;1.52;100.00
68594;BME280;55563;52.416;13.548;2024-01-30T08:11:52;102440.00;;;1.55;100.00
68594;BME280;55563;52.416;13.548;2024-01-30T08:13:53;102429.94;;;1.52;100.00
68594;BME280;55563;52.416;13.548;2024-01-30T08:15:53;102427.69;;;1.57;100.00
68594;BME280;55563;52.416;13.548;2024-01-30T08:17:54;102422.69;;;1.63;100.00
68594;BME280;55563;52.416;13.548;2024-01-30T08:19:58;102426.63;;;1.67;100.00
68594;BME280;55563;52.416;13.548;2024-01-30T08:21:59;102422.41;;;1.66;100.00
68594;BME280;55563;52.416;13.548;2024-01-30T08:23:59;102427.13;;;1.79;100.00
68594;BME280;55563;52.416;13.548;2024-01-30T08:26:00;102425.56;;;1.86;100.00
68594;BME280;55563;52.416;13.548;2024-01-30T08:28:01;102436.09;;;1.93;100.00
68594;BME280;55563;52.416;13.548;2024-01-30T08:30:02;102417.13;;;1.92;100.00
68594;BME280;55563;52.416;13.548;2024-01-30T08:32:05;102416.34;;;2.00;100.00
68594;BME280;55563;52.416;13.548;2024-01-30T08:34:06;102415.53;;;1.99;100.00
68594;BME280;55563;52.416;13.548;2024-01-30T08:36:06;102417.66;;;2.04;100.00
68594;BME280;55563;52.416;13.548;2024-01-30T08:38:07;102420.44;;;2.10;100.00
68594;BME280;55563;52.416;13.548;2024-01-30T08:40:08;102415.75;;;2.22;100.00
68594;BME280;55563;52.416;13.548;2024-01-30T08:42:09;102408.78;;;2.31;100.00
68594;BME280;55563;52.416;13.548;2024-01-30T08:44:10;102407.19;;;2.38;100.00
68594;BME280;55563;52.416;13.548;2024-01-30T08:46:11;102401.34;;;2.19;100.00
68594;BME280;55563;52.416;13.548;2024-01-30T08:48:12;102404.91;;;2.51;100.00
68594;BME280;55563;52.416;13.548;2024-01-30T08:50:12;102396.00;;;2.61;100.00
68594;BME280;55563;52.416;13.548;2024-01-30T08:52:13;102394.06;;;2.72;100.00
68594;BME280;55563;52.416;13.548;2024-01-30T08:54:13;102399.72;;;2.75;100.00
68594;BME280;55563;52.416;13.548;2024-01-30T08:56:14;102397.78;;;2.77;100.00
68594;BME280;55563;52.416;13.548;2024-01-30T08:58:16;102404.09;;;2.91;100.00
68594;BME280;55563;52.416;13.548;2024-01-30T09:00:19;102400.34;;;2.93;100.00
68594;BME280;55563;52.416;13.548;2024-01-30T09:02:20;102403.13;;;3.00;100.00
68594;BME280;55563;52.416;13.548;2024-01-30T09:04:21;102412.19;;;3.04;100.00
68594;BME280;55563;52.416;13.548;2024-01-30T09:06:21;102421.28;;;3.08;100.00
68594;BME280;55563;52.416;13.548;2024-01-30T09:08:22;102412.03;;;3.14;100.00
68594;BME280;55563;52.416;13.548;2024-01-30T09:10:23;102414.28;;;3.25;100.00
68594;BME280;55563;52.416;13.548;2024-01-30T09:12:23;102408.38;;;3.39;100.00
68594;BME280;55563;52.416;13.548;2024-01-30T09:14:24;102412.94;;;3.45;100.00
68594;BME280;55563;52.416;13.548;2024-01-30T09:16:25;102409.97;;;3.48;100.00
68594;BME280;55563;52.416;13.548;2024-01-30T09:18:26;102411.69;;;3.72;100.00
68594;BME280;55563;52.416;13.548;2024-01-30T09:20:26;102399.88;;;3.92;100.00
68594;BME280;55563;52.416;13.548;2024-01-30T09:22:27;102403.59;;;3.98;100.00
68594;BME280;55563;52.416;13.548;2024-01-30T09:24:27;102401.63;;;4.00;100.00
68594;BME280;55563;52.416;13.548;2024-01-30T09:26:28;102400.47;;;4.02;100.00
68594;BME280;55563;52.416;13.548;2024-01-30T09:28:28;102398.41;;;4.20;100.00
68594;BME280;55563;52.416;13.548;2024-01-30T09:30:29;102403.38;;;4.30;100.00
68594;BME280;55563;52.416;13.548;2024-01-30T09:32:30;102409.69;;;4.35;100.00
68594;BME280;55563;52.416;13.548;2024-01-30T09:34:30;102406.56;;;4.40;100.00
68594;BME280;55563;52.416;13.548;2024-01-30T09:36:31;102410.28;;;4.46;100.00
68594;BME280;55563;52.416;13.548;2024-01-30T09:38:32;102413.94;;;4.51;100.00
68594;BME280;55563;52.416;13.548;2024-01-30T09:40:33;102408.50;;;4.61;100.00
68594;BME280;55563;52.416;13.548;2024-01-30T09:42:35;102406.09;;;4.59;100.00
68594;BME280;55563;52.416;13.548;2024-01-30T09:44:38;102402.00;;;4.65;100.00
68594;BME280;55563;52.416;13.548;2024-01-30T09:46:38;102407.72;;;4.75;100.00
68594;BME280;55563;52.416;13.548;2024-01-30T09:48:41;102397.34;;;4.90;100.00
68594;BME280;55563;52.416;13.548;2024-01-30T09:50:42;102394.69;;;4.98;100.00
68594;BME280;55563;52.416;13.548;2024-01-30T09:52:44;102394.69;;;5.12;100.00
68594;BME280;55563;52.416;13.548;2024-01-30T09:54:45;102399.19;;;5.18;100.00
68594;BME280;55563;52.416;13.548;2024-01-30T09:56:47;102396.94;;;5.15;100.00
68594;BME280;55563;52.416;13.548;2024-01-30T09:58:48;102396.56;;;5.18;100.00
68594;BME280;55563;52.416;13.548;2024-01-30T10:00:49;102391.44;;;5.10;100.00
68594;BME280;55563;52.416;13.548;2024-01-30T10:02:49;102395.03;;;5.24;100.00
68594;BME280;55563;52.416;13.548;2024-01-30T10:04:51;102391.28;;;5.41;100.00
68594;BME280;55563;52.416;13.548;2024-01-30T10:06:52;102390.63;;;5.54;100.00
68594;BME280;55563;52.416;13.548;2024-01-30T10:08:52;102380.38;;;5.52;100.00
68594;BME280;55563;52.416;13.548;2024-01-30T10:10:53;102385.69;;;5.59;100.00
68594;BME280;55563;52.416;13.548;2024-01-30T10:12:54;102384.13;;;5.79;100.00
68594;BME280;55563;52.416;13.548;2024-01-30T10:14:56;102383.13;;;5.80;100.00
68594;BME280;55563;52.416;13.548;2024-01-30T10:16:57;102387.00;;;5.84;100.00
68594;BME280;55563;52.416;13.548;2024-01-30T10:18:58;102384.38;;;5.84;100.00
68594;BME280;55563;52.416;13.548;2024-01-30T10:20:59;102384.66;;;5.89;100.00
68594;BME280;55563;52.416;13.548;2024-01-30T10:22:59;102377.09;;;5.94;100.00
68594;BME280;55563;52.416;13.548;2024-01-30T10:25:00;102378.41;;;6.05;100.00
68594;BME280;55563;52.416;13.548;2024-01-30T10:27:01;102376.53;;;5.99;100.00
68594;BME280;55563;52.416;13.548;2024-01-30T10:29:02;102373.50;;;6.17;100.00
68594;BME280;55563;52.416;13.548;2024-01-30T10:31:03;102373.03;;;6.28;100.00
68594;BME280;55563;52.416;13.548;2024-01-30T10:33:04;102368.22;;;6.31;100.00
68594;BME280;55563;52.416;13.548;2024-01-30T10:35:05;102374.34;;;6.24;100.00
68594;BME280;55563;52.416;13.548;2024-01-30T10:37:08;102366.59;;;6.30;100.00
68594;BME280;55563;52.416;13.548;2024-01-30T10:39:17;102373.19;;;6.47;100.00
68594;BME280;55563;52.416;13.548;2024-01-30T10:41:26;102361.88;;;6.40;100.00
68594;BME280;55563;52.416;13.548;2024-01-30T10:43:31;102362.25;;;6.37;100.00
68594;BME280;55563;52.416;13.548;2024-01-30T10:45:35;102366.59;;;6.51;100.00
68594;BME280;55563;52.416;13.548;2024-01-30T10:47:36;102365.72;;;6.44;100.00
68594;BME280;55563;52.416;13.548;2024-01-30T10:49:39;102371.91;;;6.65;100.00
68594;BME280;55563;52.416;13.548;2024-01-30T10:51:40;102370.59;;;6.75;100.00
68594;BME280;55563;52.416;13.548;2024-01-30T10:53:46;102377.13;;;6.92;100.00
68594;BME280;55563;52.416;13.548;2024-01-30T10:55:47;102369.94;;;7.01;100.00
68594;BME280;55563;52.416;13.548;2024-01-30T10:57:49;102362.69;;;6.96;100.00
68594;BME280;55563;52.416;13.548;2024-01-30T10:59:50;102366.72;;;6.99;100.00
68594;BME280;55563;52.416;13.548;2024-01-30T11:01:51;102365.06;;;6.91;100.00
68594;BME280;55563;52.416;13.548;2024-01-30T11:03:53;102366.69;;;6.92;100.00
68594;BME280;55563;52.416;13.548;2024-01-30T11:05:59;102361.41;;;7.20;100.00
68594;BME280;55563;52.416;13.548;2024-01-30T11:08:11;102361.63;;;7.19;100.00
68594;BME280;55563;52.416;13.548;2024-01-30T11:10:12;102358.88;;;6.99;100.00
68594;BME280;55563;52.416;13.548;2024-01-30T11:12:15;102360.19;;;7.16;100.00
68594;BME280;55563;52.416;13.548;2024-01-30T11:14:16;102361.63;;;7.19;100.00
68594;BME280;55563;52.416;13.548;2024-01-30T11:16:17;102352.75;;;7.20;100.00
68594;BME280;55563;52.416;13.548;2024-01-30T11:18:25;102359.81;;;7.19;100.00
68594;BME280;55563;52.416;13.548;2024-01-30T11:20:29;102355.50;;;7.46;100.00
68594;BME280;55563;52.416;13.548;2024-01-30T11:22:32;102363.41;;;7.18;100.00
68594;BME280;55563;52.416;13.548;2024-01-30T11:24:39;102349.69;;;7.51;100.00
68594;BME280;55563;52.416;13.548;2024-01-30T11:26:42;102351.44;;;7.37;100.00
68594;BME280;55563;52.416;13.548;2024-01-30T11:28:42;102343.59;;;7.43;100.00
68594;BME280;55563;52.416;13.548;2024-01-30T11:30:43;102349.09;;;7.55;100.00
68594;BME280;55563;52.416;13.548;2024-01-30T11:32:44;102351.03;;;7.33;100.00
68594;BME280;55563;52.416;13.548;2024-01-30T11:34:45;102342.59;;;7.38;100.00
68594;BME280;55563;52.416;13.548;2024-01-30T11:36:51;102339.69;;;7.67;100.00
68594;BME280;55563;52.416;13.548;2024-01-30T11:38:54;102334.53;;;7.39;100.00
68594;BME280;55563;52.416;13.548;2024-01-30T11:40:55;102335.56;;;7.38;100.00
68594;BME280;55563;52.416;13.548;2024-01-30T11:43:00;102339.69;;;7.74;100.00
68594;BME280;55563;52.416;13.548;2024-01-30T11:45:01;102334.84;;;7.77;100.00
68594;BME280;55563;52.416;13.548;2024-01-30T11:47:03;102334.59;;;7.53;100.00
68594;BME280;55563;52.416;13.548;2024-01-30T11:49:05;102342.34;;;7.87;100.00
68594;BME280;55563;52.416;13.548;2024-01-30T11:51:05;102332.00;;;7.59;100.00
68594;BME280;55563;52.416;13.548;2024-01-30T11:53:06;102328.66;;;7.98;100.00
68594;BME280;55563;52.416;13.548;2024-01-30T11:55:07;102328.03;;;7.96;100.00
68594;BME280;55563;52.416;13.548;2024-01-30T11:57:08;102333.28;;;7.96;100.00
68594;BME280;55563;52.416;13.548;2024-01-30T11:59:09;102334.72;;;7.99;100.00
68594;BME280;55563;52.416;13.548;2024-01-30T12:01:11;102337.53;;;7.91;100.00
68594;BME280;55563;52.416;13.548;2024-01-30T12:03:11;102342.34;;;7.87;100.00
68594;BME280;55563;52.416;13.548;2024-01-30T12:05:12;102326.47;;;8.08;100.00
68594;BME280;55563;52.416;13.548;2024-01-30T12:07:13;102332.31;;;8.10;100.00
68594;BME280;55563;52.416;13.548;2024-01-30T12:09:16;102330.31;;;8.19;100.00
68594;BME280;55563;52.416;13.548;2024-01-30T12:11:17;102332.53;;;8.22;100.00
68594;BME280;55563;52.416;13.548;2024-01-30T12:13:18;102326.09;;;8.24;100.00
68594;BME280;55563;52.416;13.548;2024-01-30T12:15:21;102326.47;;;8.21;100.00
68594;BME280;55563;52.416;13.548;2024-01-30T12:17:28;102318.84;;;8.33;100.00
68594;BME280;55563;52.416;13.548;2024-01-30T12:19:29;102319.06;;;8.38;100.00
68594;BME280;55563;52.416;13.548;2024-01-30T12:21:30;102318.84;;;8.33;100.00
68594;BME280;55563;52.416;13.548;2024-01-30T12:23:30;102315.81;;;8.23;100.00
68594;BME280;55563;52.416;13.548;2024-01-30T12:25:31;102315.59;;;8.11;100.00
68594;BME280;55563;52.416;13.548;2024-01-30T12:27:32;102314.00;;;8.30;100.00
68594;BME280;55563;52.416;13.548;2024-01-30T12:29:32;102314.38;;;8.07;100.00
68594;BME280;55563;52.416;13.548;2024-01-30T12:31:33;102315.63;;;8.31;100.00
68594;BME280;55563;52.416;13.548;2024-01-30T12:33:36;102310.97;;;8.20;100.00
68594;BME280;55563;52.416;13.548;2024-01-30T12:35:36;102309.13;;;8.07;100.00
68594;BME280;55563;52.416;13.548;2024-01-30T12:37:37;102303.09;;;8.26;100.00
68594;BME280;55563;52.416;13.548;2024-01-30T12:39:38;102304.31;;;8.24;100.00
68594;BME280;55563;52.416;13.548;2024-01-30T12:41:39;102298.88;;;8.19;100.00
68594;BME280;55563;52.416;13.548;2024-01-30T12:43:39;102288.63;;;8.30;100.00
68594;BME280;55563;52.416;13.548;2024-01-30T12:45:41;102288.41;;;8.45;100.00
68594;BME280;55563;52.416;13.548;2024-01-30T12:47:42;102279.34;;;8.28;100.00
68594;BME280;55563;52.416;13.548;2024-01-30T12:49:43;102278.31;;;8.22;100.00
68594;BME280;55563;52.416;13.548;2024-01-30T12:51:44;102273.72;;;8.31;100.00
68594;BME280;55563;52.416;13.548;2024-01-30T12:53:45;102269.69;;;8.48;100.00
68594;BME280;55563;52.416;13.548;2024-01-30T12:55:48;102268.09;;;8.34;100.00
68594;BME280;55563;52.416;13.548;2024-01-30T12:57:50;102268.22;;;8.59;100.00
68594;BME280;55563;52.416;13.548;2024-01-30T12:59:51;102272.47;;;8.60;100.00
68594;BME280;55563;52.416;13.548;2024-01-30T13:01:51;102266.41;;;8.59;100.00
68594;BME280;55563;52.416;13.548;2024-01-30T13:03:52;102269.22;;;8.64;100.00
68594;BME280;55563;52.416;13.548;2024-01-30T13:05:53;102272.84;;;8.63;100.00
68594;BME280;55563;52.416;13.548;2024-01-30T13:07:53;102265.97;;;8.69;100.00
68594;BME280;55563;52.416;13.548;2024-01-30T13:09:54;102265.19;;;8.68;100.00
68594;BME280;55563;52.416;13.548;2024-01-30T13:11:55;102262.38;;;8.70;100.00
68594;BME280;55563;52.416;13.548;2024-01-30T13:13:55;102262.16;;;8.71;100.00
68594;BME280;55563;52.416;13.548;2024-01-30T13:15:57;102264.56;;;8.73;100.00
68594;BME280;55563;52.416;13.548;2024-01-30T13:17:58;102268.00;;;8.73;100.00
68594;BME280;55563;52.416;13.548;2024-01-30T13:19:58;102260.94;;;8.74;100.00
68594;BME280;55563;52.416;13.548;2024-01-30T13:21:59;102259.34;;;8.66;100.00
68594;BME280;55563;52.416;13.548;2024-01-30T13:24:00;102271.69;;;8.46;100.00
68594;BME280;55563;52.416;13.548;2024-01-30T13:26:00;102258.50;;;8.79;100.00
68594;BME280;55563;52.416;13.548;2024-01-30T13:28:01;102258.72;;;8.78;100.00
68594;BME280;55563;52.416;13.548;2024-01-30T13:30:02;102256.06;;;8.84;100.00
68594;BME280;55563;52.416;13.548;2024-01-30T13:32:03;102243.16;;;8.83;100.00
68594;BME280;55563;52.416;13.548;2024-01-30T13:34:04;102246.00;;;8.81;100.00
68594;BME280;55563;52.416;13.548;2024-01-30T13:36:07;102244.16;;;8.88;100.00
68594;BME280;55563;52.416;13.548;2024-01-30T13:38:08;102241.53;;;8.88;100.00
68594;BME280;55563;52.416;13.548;2024-01-30T13:40:09;102233.47;;;8.90;100.00
68594;BME280;55563;52.416;13.548;2024-01-30T13:42:10;102241.31;;;8.90;100.00
68594;BME280;55563;52.416;13.548;2024-01-30T13:44:10;102238.09;;;8.88;100.00
68594;BME280;55563;52.416;13.548;2024-01-30T13:46:11;102234.91;;;8.86;100.00
68594;BME280;55563;52.416;13.548;2024-01-30T13:48:11;102233.66;;;8.88;100.00
68594;BME280;55563;52.416;13.548;2024-01-30T13:50:12;102230.03;;;8.89;100.00
68594;BME280;55563;52.416;13.548;2024-01-30T13:52:15;102215.09;;;8.90;100.00
68594;BME280;55563;52.416;13.548;2024-01-30T13:54:16;102218.13;;;8.93;100.00
68594;BME280;55563;52.416;13.548;2024-01-30T13:56:17;102215.91;;;8.90;100.00
68594;BME280;55563;52.416;13.548;2024-01-30T13:58:17;102217.72;;;8.90;100.00
68594;BME280;55563;52.416;13.548;2024-01-30T14:00:18;102229.84;;;8.84;100.00
68594;BME280;55563;52.416;13.548;2024-01-30T14:02:19;102230.53;;;8.60;100.00
68594;BME280;55563;52.416;13.548;2024-01-30T14:04:19;102234.84;;;8.92;100.00
68594;BME280;55563;52.416;13.548;2024-01-30T14:06:20;102237.47;;;8.92;100.00
68594;BME280;55563;52.416;13.548;2024-01-30T14:08:20;102246.16;;;8.93;100.00
68594;BME280;55563;52.416;13.548;2024-01-30T14:10:25;102240.09;;;8.92;100.00
68594;BME280;55563;52.416;13.548;2024-01-30T14:12:25;102235.72;;;8.86;100.00
68594;BME280;55563;52.416;13.548;2024-01-30T14:14:26;102246.56;;;8.90;100.00